createdAt,value
2022-10-02T00:01:21.913Z,41.20
2022-10-02T00:03:52.825Z,41.70
2022-10-02T00:06:28.885Z,41.80
2022-10-02T00:09:03.845Z,42.30
2022-10-02T00:11:43.602Z,42.40
2022-10-02T00:14:17.223Z,42.80
2022-10-02T00:16:50.841Z,43.80
2022-10-02T00:19:22.393Z,44.60
2022-10-02T00:22:11.259Z,46.40
2022-10-02T00:24:45.015Z,47.80
2022-10-02T00:27:25.710Z,48.50
2022-10-02T00:29:58.879Z,49.40
2022-10-02T00:32:36.310Z,50.30
2022-10-02T00:35:37.968Z,51.30
2022-10-02T00:38:21.799Z,51.70
2022-10-02T00:41:21.763Z,52.40
2022-10-02T00:44:06.510Z,52.50
2022-10-02T00:46:40.756Z,52.80
2022-10-02T00:49:43.125Z,53.10
2022-10-02T00:52:23.614Z,53.30
2022-10-02T00:55:22.233Z,53.10
2022-10-02T00:58:10.656Z,53.30
2022-10-02T01:00:41.873Z,53.80
2022-10-02T01:03:18.187Z,54.20
2022-10-02T01:05:48.289Z,54.40
2022-10-02T01:08:19.367Z,54.70
2022-10-02T01:10:52.429Z,54.60
2022-10-02T01:13:22.861Z,54.30
2022-10-02T01:15:55.699Z,54.30
2022-10-02T01:18:25.548Z,54.30
2022-10-02T01:20:58.742Z,54.00
2022-10-02T01:23:35.690Z,53.90
2022-10-02T01:26:08.811Z,53.50
2022-10-02T01:28:38.725Z,53.30
2022-10-02T01:31:14.662Z,53.40
2022-10-02T01:33:48.346Z,53.20
2022-10-02T01:36:19.032Z,53.00
2022-10-02T01:38:51.154Z,52.80
2022-10-02T01:41:23.556Z,52.90
2022-10-02T01:43:56.550Z,52.90
2022-10-02T01:46:35.320Z,52.70
2022-10-02T01:49:17.885Z,52.80
2022-10-02T01:51:58.509Z,53.00
2022-10-02T01:54:40.880Z,53.00
2022-10-02T01:57:26.660Z,53.10
2022-10-02T02:00:08.584Z,53.20
2022-10-02T02:02:51.099Z,53.30
2022-10-02T02:05:30.122Z,53.10
2022-10-02T02:08:08.423Z,52.80
2022-10-02T02:10:46.653Z,52.60
2022-10-02T02:13:26.598Z,52.50
2022-10-02T02:16:03.245Z,52.50
2022-10-02T02:18:41.985Z,52.60
2022-10-02T02:21:17.564Z,52.50
2022-10-02T02:23:49.267Z,52.50
2022-10-02T02:26:21.979Z,52.50
2022-10-02T02:28:59.126Z,52.80
2022-10-02T02:31:33.629Z,53.20
2022-10-02T02:34:05.092Z,53.40
2022-10-02T02:36:39.808Z,53.50
2022-10-02T02:39:12.944Z,53.50
2022-10-02T02:41:47.892Z,53.50
2022-10-02T02:44:24.444Z,53.40
2022-10-02T02:47:07.275Z,53.90
2022-10-02T02:49:47.729Z,54.10
2022-10-02T02:52:23.981Z,54.30
2022-10-02T02:55:00.284Z,54.60
2022-10-02T02:57:35.502Z,54.70
2022-10-02T03:00:09.707Z,55.00
2022-10-02T03:02:39.494Z,55.10
2022-10-02T03:05:15.586Z,55.00
2022-10-02T03:07:51.952Z,55.20
2022-10-02T03:10:31.747Z,55.30
2022-10-02T03:13:12.946Z,55.40
2022-10-02T03:15:55.812Z,55.60
2022-10-02T03:18:55.550Z,55.30
2022-10-02T03:21:31.080Z,54.90
2022-10-02T03:24:09.110Z,55.00
2022-10-02T03:26:44.373Z,54.80
2022-10-02T03:29:20.950Z,54.50
2022-10-02T03:31:54.151Z,54.40
2022-10-02T03:34:24.819Z,54.10
2022-10-02T03:36:55.099Z,53.90
2022-10-02T03:39:26.145Z,54.10
2022-10-02T03:41:56.810Z,54.10
2022-10-02T03:44:26.752Z,54.20
2022-10-02T03:46:59.038Z,54.40
2022-10-02T03:49:28.863Z,54.40
2022-10-02T03:51:58.584Z,54.00
2022-10-02T03:54:33.961Z,53.80
2022-10-02T03:57:08.358Z,53.30
2022-10-02T03:59:42.594Z,52.80
2022-10-02T04:02:22.743Z,52.70
2022-10-02T04:04:55.946Z,52.80
2022-10-02T04:07:31.702Z,52.90
2022-10-02T04:10:16.903Z,53.10
2022-10-02T04:12:52.531Z,52.80
2022-10-02T04:15:28.367Z,52.70
2022-10-02T04:18:06.183Z,52.90
2022-10-02T04:20:43.301Z,53.00
2022-10-02T04:23:21.975Z,53.20
2022-10-02T04:25:55.362Z,53.80
2022-10-02T04:28:30.256Z,54.10
2022-10-02T04:31:01.453Z,54.60
2022-10-02T04:33:38.249Z,55.00
2022-10-02T04:36:15.539Z,55.10
2022-10-02T04:39:09.478Z,55.30
2022-10-02T04:42:04.719Z,55.60
2022-10-02T04:44:42.506Z,55.40
2022-10-02T04:47:32.929Z,54.50
2022-10-02T04:50:34.281Z,54.10
2022-10-02T04:53:23.127Z,54.10
2022-10-02T04:56:04.444Z,54.10
2022-10-02T04:58:58.935Z,54.30
2022-10-02T05:01:36.722Z,50.30
2022-10-02T05:04:22.137Z,48.10
2022-10-02T05:07:10.825Z,48.00
2022-10-02T05:09:50.234Z,48.00
2022-10-02T05:12:37.102Z,48.70
2022-10-02T05:15:42.819Z,49.10
2022-10-02T05:18:41.920Z,50.10
2022-10-02T05:21:37.933Z,50.60
2022-10-02T05:24:27.981Z,51.90
2022-10-02T05:27:14.969Z,52.50
2022-10-02T05:30:11.843Z,53.20
2022-10-02T05:32:57.507Z,54.10
2022-10-02T05:35:42.064Z,54.80
2022-10-02T05:38:23.301Z,55.40
2022-10-02T05:41:03.721Z,55.90
2022-10-02T05:43:43.478Z,55.90
2022-10-02T05:46:17.286Z,56.60
2022-10-02T05:48:49.977Z,57.20
2022-10-02T05:51:25.982Z,57.40
2022-10-02T05:54:02.996Z,58.00
2022-10-02T05:56:41.249Z,58.10
2022-10-02T05:59:18.520Z,59.00
2022-10-02T06:01:52.079Z,59.60
2022-10-02T06:04:29.735Z,59.90
2022-10-02T06:07:06.758Z,59.90
2022-10-02T06:09:39.256Z,60.00
2022-10-02T06:12:17.237Z,60.60
2022-10-02T06:14:52.959Z,61.40
2022-10-02T06:17:27.032Z,61.80
2022-10-02T06:20:03.756Z,62.10
2022-10-02T06:22:42.424Z,62.40
2022-10-02T06:25:19.652Z,62.50
2022-10-02T06:27:56.415Z,63.10
2022-10-02T06:30:26.267Z,63.50
2022-10-02T06:33:01.929Z,63.60
2022-10-02T06:35:43.864Z,64.20
2022-10-02T06:38:26.885Z,63.90
2022-10-02T06:41:06.375Z,64.00
2022-10-02T06:44:02.845Z,64.10
2022-10-02T06:46:40.310Z,62.90
2022-10-02T06:49:17.553Z,63.10
2022-10-02T06:51:59.177Z,63.00
2022-10-02T06:54:44.340Z,62.80
2022-10-02T06:57:26.505Z,63.20
2022-10-02T07:00:15.978Z,62.70
2022-10-02T07:03:18.999Z,63.10
2022-10-02T07:06:13.127Z,63.00
2022-10-02T07:09:00.919Z,63.80
2022-10-02T07:11:35.392Z,64.10
2022-10-02T07:14:19.544Z,64.50
2022-10-02T07:17:18.329Z,65.20
2022-10-02T07:20:05.661Z,65.00
2022-10-02T07:22:52.517Z,65.60
2022-10-02T07:25:36.853Z,65.80
2022-10-02T07:28:14.023Z,66.40
2022-10-02T07:30:51.110Z,66.80
2022-10-02T07:33:32.978Z,66.90
2022-10-02T07:36:09.151Z,67.60
2022-10-02T07:39:05.783Z,68.10
2022-10-02T07:41:59.320Z,68.20
2022-10-02T07:44:50.146Z,68.20
2022-10-02T07:47:32.312Z,68.20
2022-10-02T07:50:12.980Z,68.20
2022-10-02T07:52:54.318Z,68.40
2022-10-02T07:55:25.873Z,68.30
2022-10-02T07:58:02.955Z,68.30
2022-10-02T08:00:36.506Z,68.40
2022-10-02T08:03:11.072Z,68.40
2022-10-02T08:05:48.002Z,68.50
2022-10-02T08:08:23.508Z,68.50
2022-10-02T08:10:59.153Z,68.60
2022-10-02T08:13:34.839Z,68.70
2022-10-02T08:16:07.542Z,69.00
2022-10-02T08:18:41.150Z,69.30
2022-10-02T08:21:17.443Z,68.80
2022-10-02T08:23:52.107Z,69.30
2022-10-02T08:26:24.093Z,69.50
2022-10-02T08:29:01.183Z,69.40
2022-10-02T08:31:31.112Z,68.50
2022-10-02T08:34:02.330Z,68.90
2022-10-02T08:36:56.029Z,68.80
2022-10-02T08:39:50.459Z,65.90
2022-10-02T08:42:50.025Z,67.60
2022-10-02T08:45:53.159Z,68.20
2022-10-02T08:48:56.845Z,68.40
2022-10-02T08:52:09.713Z,66.90
2022-10-02T08:55:20.459Z,66.40
2022-10-02T08:58:18.983Z,66.90
2022-10-02T09:00:57.819Z,64.30
2022-10-02T09:04:18.195Z,65.10
2022-10-02T09:07:29.308Z,61.00
2022-10-02T09:10:45.727Z,58.70
2022-10-02T09:13:49.751Z,57.90
2022-10-02T09:16:31.906Z,56.50
2022-10-02T09:19:04.273Z,56.60
2022-10-02T09:21:56.182Z,57.50
2022-10-02T09:24:59.363Z,58.40
2022-10-02T09:28:00.777Z,59.00
2022-10-02T09:30:57.601Z,59.50
2022-10-02T09:33:56.896Z,60.00
2022-10-02T09:36:49.647Z,59.80
2022-10-02T09:39:52.770Z,60.00
2022-10-02T09:42:51.781Z,60.40
2022-10-02T09:46:14.189Z,60.40
2022-10-02T09:49:33.414Z,60.50
2022-10-02T09:52:26.838Z,62.00
2022-10-02T09:55:25.953Z,62.90
2022-10-02T09:58:28.462Z,62.90
2022-10-02T10:01:19.361Z,64.00
2022-10-02T10:04:20.455Z,64.40
2022-10-02T10:07:26.424Z,64.70
2022-10-02T10:10:38.527Z,65.10
2022-10-02T10:13:34.865Z,65.50
2022-10-02T10:16:51.106Z,66.00
2022-10-02T10:19:59.735Z,66.00
2022-10-02T10:22:57.575Z,66.80
2022-10-02T10:25:51.377Z,66.70
2022-10-02T10:29:07.699Z,65.90
2022-10-02T10:32:12.261Z,64.90
2022-10-02T10:35:08.378Z,64.80
2022-10-02T10:38:09.156Z,64.60
2022-10-02T10:40:45.647Z,64.10
2022-10-02T10:43:47.683Z,64.50
2022-10-02T10:46:35.511Z,64.60
2022-10-02T10:49:35.239Z,65.50
2022-10-02T10:52:14.162Z,65.10
2022-10-02T10:55:13.581Z,65.50
2022-10-02T10:57:59.990Z,64.70
2022-10-02T11:00:41.788Z,64.40
2022-10-02T11:03:31.340Z,63.10
2022-10-02T11:06:33.643Z,64.30
2022-10-02T11:09:45.417Z,64.00
2022-10-02T11:12:51.058Z,62.00
2022-10-02T11:16:06.610Z,61.40
2022-10-02T11:19:03.088Z,62.00
2022-10-02T11:21:56.457Z,62.30
2022-10-02T11:25:03.644Z,63.90
2022-10-02T11:28:00.720Z,64.00
2022-10-02T11:30:41.913Z,64.60
2022-10-02T11:33:27.833Z,63.20
2022-10-02T11:36:18.462Z,62.70
2022-10-02T11:39:17.332Z,63.40
2022-10-02T11:42:10.126Z,58.10
2022-10-02T11:44:59.085Z,60.30
2022-10-02T11:47:47.192Z,60.80
2022-10-02T11:51:01.971Z,58.80
2022-10-02T11:53:42.577Z,59.40
2022-10-02T11:56:31.179Z,58.30
2022-10-02T11:59:22.364Z,59.60
2022-10-02T12:01:57.305Z,59.40
2022-10-02T12:04:42.691Z,56.80
2022-10-02T12:07:34.283Z,57.10
2022-10-02T12:10:19.520Z,57.90
2022-10-02T12:13:05.159Z,59.40
2022-10-02T12:15:46.983Z,59.80
2022-10-02T12:18:28.319Z,57.40
2022-10-02T12:21:25.244Z,58.90
2022-10-02T12:24:12.794Z,57.60
2022-10-02T12:27:09.862Z,56.80
2022-10-02T12:30:09.242Z,55.80
2022-10-02T12:33:09.267Z,56.80
2022-10-02T12:35:57.319Z,56.10
2022-10-02T12:38:38.011Z,55.70
2022-10-02T12:41:19.757Z,56.60
2022-10-02T12:44:18.875Z,56.70
2022-10-02T12:47:07.841Z,58.30
2022-10-02T12:49:50.686Z,60.80
2022-10-02T12:52:44.549Z,61.30
2022-10-02T12:55:46.808Z,63.00
2022-10-02T12:58:23.813Z,62.70
2022-10-02T13:01:13.492Z,64.90
2022-10-02T13:04:17.136Z,63.00
2022-10-02T13:07:19.333Z,62.90
2022-10-02T13:09:55.229Z,63.70
2022-10-02T13:12:51.489Z,63.40
2022-10-02T13:15:43.158Z,62.70
2022-10-02T13:18:33.823Z,64.10
2022-10-02T13:21:16.240Z,63.30
2022-10-02T13:23:58.021Z,65.00
2022-10-02T13:26:35.797Z,63.20
2022-10-02T13:29:26.173Z,60.20
2022-10-02T13:32:12.495Z,59.70
2022-10-02T13:35:02.159Z,60.20
2022-10-02T13:37:45.652Z,60.30
2022-10-02T13:40:24.513Z,59.70
2022-10-02T13:43:18.062Z,60.30
2022-10-02T13:45:56.017Z,60.40
2022-10-02T13:48:34.064Z,59.50
2022-10-02T13:51:10.443Z,60.40
2022-10-02T13:54:18.839Z,60.40
2022-10-02T13:56:54.512Z,59.30
2022-10-02T13:59:43.251Z,59.20
2022-10-02T14:02:26.722Z,59.20
2022-10-02T14:05:05.811Z,58.60
2022-10-02T14:07:48.971Z,60.40
2022-10-02T14:10:32.916Z,58.90
2022-10-02T14:13:16.184Z,59.20
2022-10-02T14:16:02.468Z,60.40
2022-10-02T14:18:54.492Z,60.40
2022-10-02T14:21:32.582Z,61.20
2022-10-02T14:24:47.770Z,61.70
2022-10-02T14:27:46.191Z,62.60
2022-10-02T14:30:21.396Z,62.10
2022-10-02T14:32:59.431Z,60.50
2022-10-02T14:35:38.201Z,59.60
2022-10-02T14:38:25.119Z,58.90
2022-10-02T14:40:56.138Z,59.40
2022-10-02T14:43:54.541Z,56.50
2022-10-02T14:46:46.008Z,56.30
2022-10-02T14:49:34.227Z,58.70
2022-10-02T14:52:23.779Z,59.90
2022-10-02T14:55:15.802Z,56.50
2022-10-02T14:58:18.580Z,56.60
2022-10-02T15:01:06.628Z,57.40
2022-10-02T15:04:00.973Z,57.70
2022-10-02T15:06:41.512Z,58.10
2022-10-02T15:09:18.743Z,58.70
2022-10-02T15:12:01.897Z,59.90
2022-10-02T15:14:42.715Z,60.30
2022-10-02T15:17:32.488Z,60.30
2022-10-02T15:20:12.452Z,61.20
2022-10-02T15:22:49.241Z,61.70
2022-10-02T15:25:31.879Z,62.60
2022-10-02T15:28:35.241Z,64.30
2022-10-02T15:31:12.051Z,64.20
2022-10-02T15:33:48.843Z,64.80
2022-10-02T15:36:45.922Z,66.10
2022-10-02T15:39:34.842Z,66.50
2022-10-02T15:42:08.788Z,66.80
2022-10-02T15:45:16.982Z,66.90
2022-10-02T15:48:02.102Z,67.20
2022-10-02T15:50:47.311Z,67.90
2022-10-02T15:53:51.406Z,68.50
2022-10-02T15:56:36.229Z,68.60
2022-10-02T15:59:26.505Z,68.70
2022-10-02T16:02:09.904Z,69.00
2022-10-02T16:04:51.250Z,68.90
2022-10-02T16:07:58.024Z,68.70
2022-10-02T16:10:29.187Z,69.10
2022-10-02T16:13:47.191Z,68.70
2022-10-02T16:16:32.245Z,69.10
2022-10-02T16:19:09.500Z,69.80
2022-10-02T16:21:57.716Z,69.90
2022-10-02T16:24:50.449Z,70.00
2022-10-02T16:27:46.283Z,69.90
2022-10-02T16:30:18.700Z,70.30
2022-10-02T16:33:21.449Z,71.20
2022-10-02T16:36:04.807Z,71.20
2022-10-02T16:38:50.445Z,71.70
2022-10-02T16:41:38.271Z,71.80
2022-10-02T16:44:54.893Z,71.80
2022-10-02T16:47:31.425Z,72.20
2022-10-02T16:50:07.546Z,72.40
2022-10-02T16:52:48.204Z,72.40
2022-10-02T16:55:25.738Z,72.50
2022-10-02T16:58:07.569Z,72.60
2022-10-02T17:00:41.445Z,72.70
2022-10-02T17:03:15.537Z,72.80
2022-10-02T17:05:51.862Z,72.60
2022-10-02T17:08:30.994Z,72.60
2022-10-02T17:11:17.122Z,72.70
2022-10-02T17:14:12.295Z,73.00
2022-10-02T17:16:47.785Z,73.40
2022-10-02T17:19:25.477Z,73.90
2022-10-02T17:21:58.666Z,74.10
2022-10-02T17:24:37.794Z,73.70
2022-10-02T17:27:16.689Z,73.80
2022-10-02T17:30:05.172Z,74.10
2022-10-02T17:32:50.462Z,73.90
2022-10-02T17:35:33.494Z,73.80
2022-10-02T17:38:28.489Z,73.80
2022-10-02T17:41:09.830Z,74.70
2022-10-02T17:43:45.447Z,74.80
2022-10-02T17:46:42.896Z,75.00
2022-10-02T17:49:24.565Z,74.80
2022-10-02T17:52:28.061Z,75.10
2022-10-02T17:55:22.259Z,75.10
2022-10-02T17:58:02.079Z,75.10
2022-10-02T18:00:35.518Z,75.10
2022-10-02T18:03:28.994Z,75.70
2022-10-02T18:06:08.941Z,75.10
2022-10-02T18:09:18.082Z,75.00
2022-10-02T18:12:06.194Z,75.20
2022-10-02T18:15:05.026Z,75.30
2022-10-02T18:17:47.270Z,75.50
2022-10-02T18:20:27.794Z,75.50
2022-10-02T18:23:25.711Z,75.30
2022-10-02T18:26:21.947Z,75.60
2022-10-02T18:29:19.119Z,75.50
2022-10-02T18:32:06.492Z,75.30
2022-10-02T18:34:56.381Z,75.60
2022-10-02T18:37:54.574Z,75.60
2022-10-02T18:40:29.348Z,75.50
2022-10-02T18:43:18.509Z,75.70
2022-10-02T18:45:56.989Z,75.40
2022-10-02T18:48:57.046Z,75.60
2022-10-02T18:52:01.327Z,75.50
2022-10-02T18:54:41.457Z,75.30
2022-10-02T18:57:36.088Z,75.60
2022-10-02T19:00:18.383Z,75.60
2022-10-02T19:03:16.619Z,75.50
2022-10-02T19:05:53.747Z,75.40
2022-10-02T19:08:28.904Z,75.60
2022-10-02T19:11:01.296Z,75.50
2022-10-02T19:13:32.377Z,75.50
2022-10-02T19:16:20.096Z,75.50
2022-10-02T19:18:49.995Z,75.60
2022-10-02T19:21:21.683Z,75.50
2022-10-02T19:23:53.817Z,75.80
2022-10-02T19:26:28.758Z,75.70
2022-10-02T19:29:03.264Z,75.60
2022-10-02T19:31:39.546Z,75.50
2022-10-02T19:34:17.248Z,75.40
2022-10-02T19:36:51.987Z,75.40
2022-10-02T19:39:25.111Z,75.30
2022-10-02T19:42:00.693Z,75.80
2022-10-02T19:44:33.829Z,75.80
2022-10-02T19:47:16.791Z,75.70
2022-10-02T19:49:50.227Z,75.60
2022-10-02T19:52:40.581Z,75.60
2022-10-02T19:55:24.035Z,75.50
2022-10-02T19:58:02.022Z,75.40
2022-10-02T20:00:35.350Z,75.30
2022-10-02T20:03:11.614Z,75.50
2022-10-02T20:05:42.007Z,75.50
2022-10-02T20:08:17.985Z,75.60
2022-10-02T20:10:56.846Z,75.50
2022-10-02T20:13:37.239Z,75.70
2022-10-02T20:16:27.617Z,75.60
2022-10-02T20:18:58.042Z,75.60
2022-10-02T20:21:40.237Z,75.40
2022-10-02T20:24:16.426Z,75.20
2022-10-02T20:26:49.025Z,75.30
2022-10-02T20:29:26.199Z,75.00
2022-10-02T20:32:02.133Z,75.10
2022-10-02T20:34:39.283Z,74.80
2022-10-02T20:37:14.341Z,74.90
2022-10-02T20:39:50.371Z,74.80
2022-10-02T20:42:24.177Z,74.80
2022-10-02T20:44:56.531Z,74.70
2022-10-02T20:47:52.112Z,74.80
2022-10-02T20:50:48.475Z,74.60
2022-10-02T20:53:57.335Z,74.70
2022-10-02T20:57:02.617Z,74.60
2022-10-02T21:00:14.961Z,74.60
2022-10-02T21:03:11.905Z,74.60
2022-10-02T21:06:00.697Z,74.80
2022-10-02T21:09:09.025Z,74.50
2022-10-02T21:11:56.563Z,74.50
2022-10-02T21:15:08.721Z,74.80
2022-10-02T21:18:07.040Z,74.50
2022-10-02T21:20:59.531Z,74.60
2022-10-02T21:23:39.987Z,75.30
2022-10-02T21:26:46.002Z,75.30
2022-10-02T21:29:37.738Z,75.30
2022-10-02T21:32:31.771Z,75.40
2022-10-02T21:35:16.875Z,75.40
2022-10-02T21:38:01.575Z,75.40
2022-10-02T21:41:07.712Z,75.50
2022-10-02T21:44:16.364Z,75.40
2022-10-02T21:47:18.815Z,75.60
2022-10-02T21:50:21.019Z,75.40
2022-10-02T21:53:27.749Z,75.50
2022-10-02T21:56:33.711Z,75.50
2022-10-02T21:59:36.881Z,75.50
2022-10-02T22:02:32.835Z,75.40
2022-10-02T22:05:29.363Z,75.40
2022-10-02T22:08:08.071Z,75.40
2022-10-02T22:10:46.173Z,75.50
2022-10-02T22:13:26.375Z,75.50
2022-10-02T22:16:11.618Z,75.50
2022-10-02T22:18:51.559Z,75.50
2022-10-02T22:21:41.178Z,75.60
2022-10-02T22:24:26.010Z,75.60
2022-10-02T22:27:37.025Z,76.20
2022-10-02T22:30:22.206Z,75.60
2022-10-02T22:33:19.280Z,75.60
2022-10-02T22:36:05.671Z,75.60
2022-10-02T22:38:36.953Z,75.50
2022-10-02T22:41:12.063Z,75.50
2022-10-02T22:43:49.644Z,75.50
2022-10-02T22:46:28.005Z,75.50
2022-10-02T22:49:03.768Z,75.50
2022-10-02T22:51:40.636Z,75.50
2022-10-02T22:54:24.740Z,75.40
2022-10-02T22:57:07.079Z,75.40
2022-10-02T22:59:44.093Z,75.50
2022-10-02T23:02:23.323Z,75.50
2022-10-02T23:04:59.326Z,75.50
2022-10-02T23:07:37.499Z,75.40
2022-10-02T23:10:18.621Z,75.50
2022-10-02T23:12:58.184Z,75.50
2022-10-02T23:15:45.259Z,75.40
2022-10-02T23:18:28.912Z,75.40
2022-10-02T23:21:05.189Z,75.40
2022-10-02T23:23:43.870Z,75.30
2022-10-02T23:26:19.344Z,75.30
2022-10-02T23:28:55.781Z,75.40
2022-10-02T23:31:32.115Z,75.40
2022-10-02T23:34:14.068Z,75.30
2022-10-02T23:36:51.802Z,75.30
2022-10-02T23:39:29.295Z,75.40
2022-10-02T23:42:01.934Z,75.40
2022-10-02T23:44:41.529Z,75.40
2022-10-02T23:47:23.342Z,75.30
2022-10-02T23:49:57.329Z,75.30
2022-10-02T23:52:52.686Z,75.10
2022-10-02T23:55:35.571Z,75.20
2022-10-02T23:58:29.863Z,75.00
